createdAt,value
2018-07-30T00:02:22.681Z,99789.52
2018-07-30T00:04:50.303Z,99794.02
2018-07-30T00:07:18.945Z,99794.94
2018-07-30T00:09:46.559Z,99791.33
2018-07-30T00:12:14.176Z,99791.20
2018-07-30T00:14:41.839Z,99795.41
2018-07-30T00:17:09.467Z,99795.41
2018-07-30T00:19:37.048Z,99794.32
2018-07-30T00:22:04.696Z,99799.69
2018-07-30T00:24:32.286Z,99799.89
2018-07-30T00:26:59.895Z,99812.09
2018-07-30T00:29:27.510Z,99817.66
2018-07-30T00:31:55.142Z,99816.83
2018-07-30T00:34:22.757Z,99811.25
2018-07-30T00:36:50.342Z,99807.22
2018-07-30T00:39:18.093Z,99811.25
2018-07-30T00:41:45.715Z,99792.81
2018-07-30T00:44:13.350Z,99814.66
2018-07-30T00:46:41.055Z,99821.39
2018-07-30T00:49:08.695Z,99818.48
2018-07-30T00:51:36.301Z,99815.80
2018-07-30T00:54:03.947Z,99818.17
2018-07-30T00:56:31.569Z,99818.30
2018-07-30T00:58:59.225Z,99824.38
2018-07-30T01:01:26.863Z,99819.45
2018-07-30T01:03:54.581Z,99819.34
2018-07-30T01:06:22.224Z,99809.84
2018-07-30T01:08:50.186Z,99810.98
2018-07-30T01:11:17.781Z,99811.09
2018-07-30T01:13:45.553Z,99819.41
2018-07-30T01:16:13.127Z,99812.63
2018-07-30T01:18:40.725Z,99814.17
2018-07-30T01:21:08.380Z,99810.25
2018-07-30T01:23:36.010Z,99814.28
2018-07-30T01:26:09.437Z,99813.03
2018-07-30T01:28:37.029Z,99812.94
2018-07-30T01:31:04.913Z,99813.53
2018-07-30T01:33:32.526Z,99808.38
2018-07-30T01:36:00.343Z,99790.16
2018-07-30T01:38:27.927Z,99809.12
2018-07-30T01:40:55.515Z,99802.80
2018-07-30T01:43:23.117Z,99790.23
2018-07-30T01:45:50.824Z,99807.31
2018-07-30T01:48:18.632Z,99700.23
2018-07-30T01:50:46.244Z,99811.14
2018-07-30T01:53:14.101Z,99807.81
2018-07-30T01:55:41.776Z,99811.12
2018-07-30T01:58:09.394Z,99809.33
2018-07-30T02:00:37.023Z,99805.41
2018-07-30T02:03:04.834Z,99800.53
2018-07-30T02:05:32.496Z,99798.86
2018-07-30T02:08:00.211Z,99801.34
2018-07-30T02:10:27.941Z,99802.55
2018-07-30T02:12:55.601Z,99800.83
2018-07-30T02:15:23.229Z,99800.31
2018-07-30T02:17:50.819Z,99799.69
2018-07-30T02:20:18.472Z,99802.58
2018-07-30T02:22:46.094Z,99799.30
2018-07-30T02:25:13.664Z,99804.92
2018-07-30T02:27:41.337Z,99803.34
2018-07-30T02:30:09.327Z,99801.59
2018-07-30T02:32:36.973Z,99803.55
2018-07-30T02:35:06.789Z,99805.75
2018-07-30T02:37:34.408Z,99806.73
2018-07-30T02:40:02.189Z,99799.84
2018-07-30T02:42:29.961Z,99803.37
2018-07-30T02:44:57.654Z,99806.78
2018-07-30T02:47:25.300Z,99811.41
2018-07-30T02:49:52.912Z,99812.30
2018-07-30T02:52:20.525Z,99810.37
2018-07-30T02:54:48.131Z,99814.83
2018-07-30T02:57:15.753Z,99812.77
2018-07-30T02:59:43.342Z,99824.23
2018-07-30T03:02:10.935Z,99823.92
2018-07-30T03:04:38.533Z,99822.45
2018-07-30T03:07:06.175Z,99835.47
2018-07-30T03:09:33.799Z,99831.77
2018-07-30T03:12:01.399Z,99818.48
2018-07-30T03:14:29.078Z,99824.33
2018-07-30T03:16:56.659Z,99840.32
2018-07-30T03:19:24.344Z,99831.73
2018-07-30T03:21:52.053Z,99823.24
2018-07-30T03:24:19.822Z,99828.09
2018-07-30T03:26:47.450Z,99833.20
2018-07-30T03:29:15.124Z,99830.43
2018-07-30T03:31:42.782Z,99834.67
2018-07-30T03:34:10.410Z,99830.05
2018-07-30T03:36:38.044Z,99831.40
2018-07-30T03:39:07.698Z,99826.22
2018-07-30T03:41:35.282Z,99824.38
2018-07-30T03:44:02.982Z,99829.53
2018-07-30T03:46:30.658Z,99826.67
2018-07-30T03:48:58.288Z,99829.73
2018-07-30T03:51:25.933Z,99829.94
2018-07-30T03:53:53.685Z,99827.95
2018-07-30T03:56:21.329Z,99828.41
2018-07-30T03:58:48.949Z,99828.09
2018-07-30T04:01:16.584Z,99830.78
2018-07-30T04:03:44.187Z,99832.63
2018-07-30T04:06:11.965Z,99831.46
2018-07-30T04:08:39.612Z,99828.39
2018-07-30T04:11:07.217Z,99837.17
2018-07-30T04:13:34.802Z,99833.45
2018-07-30T04:16:02.416Z,99838.19
2018-07-30T04:18:29.944Z,99836.33
2018-07-30T04:20:57.514Z,99837.58
2018-07-30T04:23:25.146Z,99838.77
2018-07-30T04:25:53.950Z,99831.73
2018-07-30T04:28:21.632Z,99823.03
2018-07-30T04:30:49.340Z,99824.56
2018-07-30T04:33:16.970Z,99832.20
2018-07-30T04:35:44.646Z,99835.31
2018-07-30T04:38:12.330Z,99832.02
2018-07-30T04:40:39.961Z,99830.03
2018-07-30T04:43:07.605Z,99836.84
2018-07-30T04:45:35.195Z,99835.71
2018-07-30T04:48:02.836Z,99829.41
2018-07-30T04:50:30.516Z,99838.38
2018-07-30T04:52:58.165Z,99837.12
2018-07-30T04:55:25.779Z,99839.40
2018-07-30T04:57:53.441Z,99841.47
2018-07-30T05:00:21.117Z,99834.37
2018-07-30T05:02:48.759Z,99835.84
2018-07-30T05:05:16.514Z,99837.36
2018-07-30T05:07:44.186Z,99804.41
2018-07-30T05:10:11.855Z,99837.39
2018-07-30T05:12:39.589Z,99846.11
2018-07-30T05:15:07.203Z,99846.84
2018-07-30T05:17:34.887Z,99850.03
2018-07-30T05:20:02.536Z,99843.77
2018-07-30T05:22:30.186Z,99845.11
2018-07-30T05:24:57.820Z,99847.79
2018-07-30T05:27:25.449Z,99847.88
2018-07-30T05:29:53.012Z,99850.37
2018-07-30T05:32:20.663Z,99856.87
2018-07-30T05:34:48.331Z,99860.89
2018-07-30T05:37:16.028Z,99855.02
2018-07-30T05:39:43.586Z,99863.94
2018-07-30T05:42:11.368Z,99864.39
2018-07-30T05:44:38.945Z,99864.75
2018-07-30T05:47:06.643Z,99875.39
2018-07-30T05:49:34.276Z,99884.20
2018-07-30T05:52:01.872Z,99878.69
2018-07-30T05:54:29.494Z,99881.39
2018-07-30T05:56:57.098Z,99875.45
2018-07-30T05:59:24.753Z,99876.49
2018-07-30T06:04:26.772Z,99880.64
2018-07-30T06:06:54.437Z,99880.22
2018-07-30T06:09:22.194Z,99877.20
2018-07-30T06:11:49.902Z,99879.99
2018-07-30T06:14:17.609Z,99882.21
2018-07-30T06:16:45.232Z,99888.11
2018-07-30T06:19:12.856Z,99889.55
2018-07-30T06:21:40.533Z,99895.10
2018-07-30T06:24:08.240Z,99890.66
2018-07-30T06:26:35.853Z,99898.67
2018-07-30T06:29:03.461Z,99893.52
2018-07-30T06:31:31.093Z,99897.22
2018-07-30T06:33:58.807Z,99896.52
2018-07-30T06:36:26.377Z,99889.58
2018-07-30T06:38:54.055Z,99901.15
2018-07-30T06:41:21.787Z,99903.44
2018-07-30T06:43:49.567Z,99914.01
2018-07-30T06:46:17.232Z,99904.14
2018-07-30T06:48:44.949Z,99914.36
2018-07-30T06:51:12.629Z,99911.96
2018-07-30T06:53:40.258Z,99915.20
2018-07-30T06:56:07.927Z,99915.25
2018-07-30T06:58:35.534Z,99919.25
2018-07-30T07:01:03.219Z,99924.80
2018-07-30T07:03:31.572Z,99925.24
2018-07-30T07:05:59.273Z,99927.68
2018-07-30T07:08:28.246Z,99931.55
2018-07-30T07:10:56.081Z,99920.13
2018-07-30T07:13:24.467Z,99926.42
2018-07-30T07:15:52.055Z,99928.97
2018-07-30T07:18:20.451Z,99928.11
2018-07-30T07:20:48.276Z,99929.34
2018-07-30T07:23:15.917Z,99921.61
2018-07-30T07:25:44.004Z,99921.05
2018-07-30T07:28:11.645Z,99925.54
2018-07-30T07:30:39.464Z,99924.33
2018-07-30T07:33:07.144Z,99925.68
2018-07-30T07:35:34.881Z,99926.78
2018-07-30T07:38:02.600Z,99929.39
2018-07-30T07:40:30.224Z,99928.94
2018-07-30T07:42:57.834Z,99930.31
2018-07-30T07:45:25.518Z,99932.73
2018-07-30T07:47:53.177Z,99932.02
2018-07-30T07:50:20.828Z,99924.41
2018-07-30T07:52:49.801Z,99925.40
2018-07-30T07:55:17.487Z,99932.43
2018-07-30T07:57:45.138Z,99929.97
2018-07-30T08:00:12.823Z,99925.20
2018-07-30T08:02:40.467Z,99928.86
2018-07-30T08:05:08.450Z,99920.43
2018-07-30T08:07:36.825Z,99927.50
2018-07-30T08:10:04.817Z,99923.87
2018-07-30T08:12:32.493Z,99927.84
2018-07-30T08:15:00.094Z,99926.97
2018-07-30T08:17:27.952Z,99923.47
2018-07-30T08:19:55.592Z,99919.44
2018-07-30T08:22:23.324Z,99923.75
2018-07-30T08:24:50.802Z,99921.38
2018-07-30T08:27:19.239Z,99927.25
2018-07-30T08:29:46.886Z,99915.28
2018-07-30T08:32:14.482Z,99917.75
2018-07-30T08:34:42.162Z,99919.93
2018-07-30T08:37:09.762Z,99918.75
2018-07-30T08:39:37.491Z,99919.77
2018-07-30T08:42:05.331Z,99915.28
2018-07-30T08:44:33.017Z,99924.94
2018-07-30T08:47:00.603Z,99916.36
2018-07-30T08:49:28.246Z,99918.69
2018-07-30T08:51:55.913Z,99917.61
2018-07-30T08:54:23.561Z,99917.97
2018-07-30T08:56:51.261Z,99925.89
2018-07-30T08:59:18.834Z,99928.39
2018-07-30T09:01:46.436Z,99924.98
2018-07-30T09:04:14.045Z,99925.61
2018-07-30T09:06:41.599Z,99937.58
2018-07-30T09:09:09.910Z,99928.89
2018-07-30T09:11:37.878Z,99920.37
2018-07-30T09:14:06.049Z,99920.14
2018-07-30T09:16:33.710Z,99921.87
2018-07-30T09:19:01.323Z,99930.13
2018-07-30T09:21:28.946Z,99923.89
2018-07-30T09:23:56.546Z,99928.25
2018-07-30T09:26:24.106Z,99928.86
2018-07-30T09:28:51.661Z,99928.62
2018-07-30T09:31:19.265Z,99921.30
2018-07-30T09:33:46.902Z,99925.16
2018-07-30T09:36:19.612Z,99929.56
2018-07-30T09:38:47.456Z,99927.67
2018-07-30T09:41:15.142Z,99922.50
2018-07-30T09:43:42.714Z,99922.26
2018-07-30T09:46:10.334Z,99925.28
2018-07-30T09:48:38.030Z,99928.55
2018-07-30T09:51:06.468Z,99923.94
2018-07-30T09:53:34.142Z,99921.00
2018-07-30T09:56:01.834Z,99918.55
2018-07-30T09:58:29.405Z,99912.84
2018-07-30T10:01:02.742Z,99916.84
2018-07-30T10:03:30.398Z,99923.14
2018-07-30T10:05:58.003Z,99914.19
2018-07-30T10:08:25.647Z,99919.91
2018-07-30T10:10:55.027Z,99925.07
2018-07-30T10:13:23.571Z,99918.84
2018-07-30T10:15:51.555Z,99922.10
2018-07-30T10:18:19.228Z,99922.09
2018-07-30T10:20:46.735Z,99908.48
2018-07-30T10:23:14.655Z,99904.95
2018-07-30T10:25:42.356Z,99903.58
2018-07-30T10:28:10.326Z,99901.41
2018-07-30T10:30:38.036Z,99903.33
2018-07-30T10:33:05.812Z,99903.33
2018-07-30T10:35:33.487Z,99896.23
2018-07-30T10:38:01.189Z,99889.70
2018-07-30T10:40:28.718Z,99898.98
2018-07-30T10:42:56.446Z,99894.90
2018-07-30T10:45:24.256Z,99897.33
2018-07-30T10:47:51.884Z,99893.56
2018-07-30T10:50:19.702Z,99887.56
2018-07-30T10:52:47.488Z,99886.45
2018-07-30T10:55:15.179Z,99883.98
2018-07-30T10:57:42.786Z,99889.42
2018-07-30T11:00:10.551Z,99888.30
2018-07-30T11:02:38.337Z,99876.89
2018-07-30T11:05:06.386Z,99877.71
2018-07-30T11:07:34.083Z,99882.88
2018-07-30T11:10:02.180Z,99880.45
2018-07-30T11:12:29.969Z,99877.74
2018-07-30T11:14:57.767Z,99872.55
2018-07-30T11:17:25.547Z,99872.54
2018-07-30T11:19:53.281Z,99871.70
2018-07-30T11:22:21.016Z,99866.52
2018-07-30T11:24:48.750Z,99872.20
2018-07-30T11:27:16.359Z,99863.99
2018-07-30T11:29:44.260Z,99861.24
2018-07-30T11:32:11.905Z,99864.16
2018-07-30T11:34:39.673Z,99864.42
2018-07-30T11:37:07.314Z,99853.25
2018-07-30T11:39:35.346Z,99856.00
2018-07-30T11:42:03.736Z,99856.85
2018-07-30T11:44:31.489Z,99856.83
2018-07-30T11:46:59.168Z,99856.83
2018-07-30T11:49:26.858Z,99856.58
2018-07-30T11:51:54.562Z,99858.27
2018-07-30T11:54:22.381Z,99864.30
2018-07-30T11:56:50.044Z,99857.50
2018-07-30T11:59:17.828Z,99857.25
2018-07-30T12:01:45.502Z,99855.34
2018-07-30T12:04:13.152Z,99853.41
2018-07-30T12:06:40.868Z,99848.45
2018-07-30T12:09:08.523Z,99851.91
2018-07-30T12:11:36.382Z,99855.42
2018-07-30T12:14:04.079Z,99846.89
2018-07-30T12:16:31.894Z,99835.67
2018-07-30T12:18:59.639Z,99847.51
2018-07-30T12:21:27.393Z,99844.27
2018-07-30T12:23:55.148Z,99841.02
2018-07-30T12:26:22.861Z,99845.19
2018-07-30T12:28:50.488Z,99847.52
2018-07-30T12:31:18.187Z,99848.40
2018-07-30T12:33:45.849Z,99846.27
2018-07-30T12:36:13.509Z,99840.18
2018-07-30T12:38:41.086Z,99838.98
2018-07-30T12:41:08.807Z,99844.37
2018-07-30T12:43:36.460Z,99843.46
2018-07-30T12:46:04.537Z,99843.20
2018-07-30T12:48:32.346Z,99838.45
2018-07-30T12:51:00.033Z,99837.84
2018-07-30T12:53:27.762Z,99833.30
2018-07-30T12:55:55.448Z,99828.11
2018-07-30T12:58:23.094Z,99829.64
2018-07-30T13:00:50.752Z,99829.12
2018-07-30T13:03:18.461Z,99822.14
2018-07-30T13:05:46.247Z,99821.78
2018-07-30T13:08:13.899Z,99820.83
2018-07-30T13:10:41.615Z,99815.92
2018-07-30T13:13:09.501Z,99816.80
2018-07-30T13:15:37.415Z,99820.38
2018-07-30T13:18:05.028Z,99818.39
2018-07-30T13:20:32.731Z,99818.07
2018-07-30T13:23:00.419Z,99816.88
2018-07-30T13:25:28.075Z,99816.13
2018-07-30T13:27:55.793Z,99812.53
2018-07-30T13:30:23.463Z,99811.08
2018-07-30T13:32:51.151Z,99815.83
2018-07-30T13:35:18.862Z,99810.95
2018-07-30T13:37:46.507Z,99817.09
2018-07-30T13:40:14.096Z,99813.62
2018-07-30T13:42:41.718Z,99812.45
2018-07-30T13:45:09.356Z,99808.87
2018-07-30T13:47:36.948Z,99805.75
2018-07-30T13:50:05.953Z,99803.72
2018-07-30T13:52:33.526Z,99803.15
2018-07-30T13:55:01.281Z,99808.19
2018-07-30T13:57:29.249Z,99803.37
2018-07-30T13:59:56.948Z,99807.45
2018-07-30T14:02:24.530Z,99801.41
2018-07-30T14:04:52.148Z,99786.29
2018-07-30T14:07:19.751Z,99788.16
2018-07-30T14:09:47.422Z,99788.97
2018-07-30T14:12:15.062Z,99790.17
2018-07-30T14:14:42.675Z,99781.38
2018-07-30T14:17:10.337Z,99772.89
2018-07-30T14:19:37.921Z,99786.75
2018-07-30T14:22:06.161Z,99782.16
2018-07-30T14:24:33.803Z,99790.35
2018-07-30T14:27:01.415Z,99785.41
2018-07-30T14:29:29.015Z,99782.91
2018-07-30T14:31:56.636Z,99777.02
2018-07-30T14:34:24.253Z,99770.44
2018-07-30T14:36:51.998Z,99767.74
2018-07-30T14:39:19.565Z,99772.69
2018-07-30T14:41:47.208Z,99775.41
2018-07-30T14:44:15.841Z,99777.81
2018-07-30T14:46:43.455Z,99768.01
2018-07-30T14:49:11.047Z,99767.03
2018-07-30T14:51:38.897Z,99759.19
2018-07-30T14:54:06.598Z,99757.47
2018-07-30T14:56:34.223Z,99757.51
2018-07-30T14:59:01.869Z,99760.64
2018-07-30T15:01:29.479Z,99762.48
2018-07-30T15:03:57.109Z,99756.55
2018-07-30T15:06:24.750Z,99752.64
2018-07-30T15:08:52.404Z,99761.91
2018-07-30T15:11:20.054Z,99763.73
2018-07-30T15:13:47.701Z,99758.98
2018-07-30T15:16:15.323Z,99765.23
2018-07-30T15:18:42.892Z,99770.37
2018-07-30T15:21:10.511Z,99745.02
2018-07-30T15:23:38.101Z,99765.47
2018-07-30T15:26:05.710Z,99764.45
2018-07-30T15:28:33.284Z,99766.62
2018-07-30T15:31:00.914Z,99761.89
2018-07-30T15:33:28.519Z,99750.34
2018-07-30T15:35:56.272Z,99752.05
2018-07-30T15:38:24.715Z,99754.30
2018-07-30T15:40:52.308Z,99752.21
2018-07-30T15:43:19.863Z,99749.98
2018-07-30T15:45:47.463Z,99747.77
2018-07-30T15:48:15.022Z,99753.70
2018-07-30T15:50:42.874Z,99748.98
2018-07-30T15:53:10.573Z,99748.02
2018-07-30T15:55:38.312Z,99751.27
2018-07-30T15:58:05.986Z,99747.69
2018-07-30T16:00:33.775Z,99745.65
2018-07-30T16:03:01.408Z,99751.92
2018-07-30T16:05:29.132Z,99740.15
2018-07-30T16:07:56.786Z,99735.58
2018-07-30T16:10:24.486Z,99740.53
2018-07-30T16:12:52.106Z,99742.29
2018-07-30T16:15:19.757Z,99740.45
2018-07-30T16:17:47.469Z,99737.86
2018-07-30T16:20:15.083Z,99740.39
2018-07-30T16:22:42.719Z,99735.49
2018-07-30T16:25:10.417Z,99739.59
2018-07-30T16:27:38.096Z,99733.47
2018-07-30T16:30:07.438Z,99739.12
2018-07-30T16:32:35.105Z,99742.25
2018-07-30T16:35:02.735Z,99738.06
2018-07-30T16:37:30.365Z,99735.83
2018-07-30T16:39:58.001Z,99733.76
2018-07-30T16:42:25.680Z,99735.06
2018-07-30T16:44:53.385Z,99742.42
2018-07-30T16:47:21.028Z,99735.63
2018-07-30T16:49:48.674Z,99741.84
2018-07-30T16:52:16.566Z,99744.97
2018-07-30T16:54:44.196Z,99750.45
2018-07-30T16:57:11.890Z,99757.82
2018-07-30T16:59:39.557Z,99752.45
2018-07-30T17:02:07.332Z,99743.94
2018-07-30T17:04:35.010Z,99743.83
2018-07-30T17:07:03.293Z,99742.72
2018-07-30T17:09:30.961Z,99759.16
2018-07-30T17:11:58.651Z,99753.27
2018-07-30T17:14:26.279Z,99747.58
2018-07-30T17:16:54.029Z,99747.58
2018-07-30T17:19:21.728Z,99758.42
2018-07-30T17:21:49.712Z,99760.40
2018-07-30T17:24:17.474Z,99757.08
2018-07-30T17:26:45.332Z,99755.95
2018-07-30T17:29:13.032Z,99759.09
2018-07-30T17:31:40.631Z,99767.61
2018-07-30T17:34:10.126Z,99762.11
2018-07-30T17:36:37.934Z,99764.96
2018-07-30T17:39:08.081Z,99766.31
2018-07-30T17:41:35.707Z,99759.76
2018-07-30T17:44:03.371Z,99771.92
2018-07-30T17:46:31.180Z,99762.89
2018-07-30T17:48:58.739Z,99765.08
2018-07-30T17:51:26.392Z,99762.67
2018-07-30T17:53:54.023Z,99766.66
2018-07-30T17:56:21.903Z,99768.67
2018-07-30T17:58:49.517Z,99761.53
2018-07-30T18:01:17.391Z,99770.89
2018-07-30T18:03:45.039Z,99768.67
2018-07-30T18:06:12.867Z,99772.20
2018-07-30T18:08:40.447Z,99772.84
2018-07-30T18:11:08.084Z,99774.16
2018-07-30T18:13:35.692Z,99774.25
2018-07-30T18:16:03.347Z,99780.32
2018-07-30T18:18:31.065Z,99783.81
2018-07-30T18:20:58.777Z,99782.89
2018-07-30T18:23:27.252Z,99784.16
2018-07-30T18:25:54.986Z,99783.08
2018-07-30T18:28:22.885Z,99790.39
2018-07-30T18:30:50.754Z,99784.88
2018-07-30T18:33:18.467Z,99779.56
2018-07-30T18:35:46.983Z,99784.10
2018-07-30T18:38:14.784Z,99787.76
2018-07-30T18:40:42.539Z,99786.63
2018-07-30T18:43:10.328Z,99779.10
2018-07-30T18:45:37.976Z,99785.48
2018-07-30T18:48:05.787Z,99787.48
2018-07-30T18:50:33.569Z,99799.01
2018-07-30T18:53:01.403Z,99803.72
2018-07-30T18:55:29.218Z,99806.56
2018-07-30T18:57:56.909Z,99807.39
2018-07-30T19:00:24.671Z,99807.72
2018-07-30T19:02:52.441Z,99813.18
2018-07-30T19:05:20.175Z,99817.30
2018-07-30T19:07:47.803Z,99818.39
2018-07-30T19:10:15.593Z,99821.94
2018-07-30T19:12:43.365Z,99809.67
2018-07-30T19:15:11.073Z,99833.61
2018-07-30T19:17:38.888Z,99830.33
2018-07-30T19:20:06.543Z,99842.28
2018-07-30T19:22:34.276Z,99842.56
2018-07-30T19:25:01.977Z,99847.44
2018-07-30T19:27:29.716Z,99856.86
2018-07-30T19:29:57.474Z,99861.16
2018-07-30T19:32:25.275Z,99861.13
2018-07-30T19:34:52.985Z,99859.19
2018-07-30T19:37:20.768Z,99864.56
2018-07-30T19:39:48.826Z,99867.77
2018-07-30T19:44:51.117Z,99869.25
2018-07-30T19:47:19.019Z,99873.58
2018-07-30T19:49:46.832Z,99871.97
2018-07-30T19:52:14.614Z,99874.62
2018-07-30T19:54:42.246Z,99867.39
2018-07-30T19:57:10.053Z,99879.33
2018-07-30T19:59:37.822Z,99883.05
2018-07-30T20:02:05.754Z,99879.58
2018-07-30T20:04:33.518Z,99880.25
2018-07-30T20:07:01.304Z,99881.25
2018-07-30T20:09:28.836Z,99883.44
2018-07-30T20:11:56.474Z,99885.83
2018-07-30T20:14:24.746Z,99891.34
2018-07-30T20:16:52.522Z,99894.30
2018-07-30T20:19:20.146Z,99891.11
2018-07-30T20:21:47.704Z,99900.40
2018-07-30T20:24:15.358Z,99897.28
2018-07-30T20:26:43.033Z,99905.66
2018-07-30T20:29:10.889Z,99900.47
2018-07-30T20:31:38.784Z,99901.63
2018-07-30T20:34:06.593Z,99900.52
2018-07-30T20:36:34.299Z,99910.69
2018-07-30T20:39:02.304Z,99908.30
2018-07-30T20:41:30.054Z,99913.37
2018-07-30T20:43:57.785Z,99914.12
2018-07-30T20:46:25.721Z,99914.12
2018-07-30T20:48:53.351Z,99924.66
2018-07-30T20:51:21.015Z,99920.30
2018-07-30T20:53:48.831Z,99930.86
2018-07-30T20:56:16.473Z,99933.91
2018-07-30T20:58:44.286Z,99928.78
2018-07-30T21:01:12.135Z,99935.28
2018-07-30T21:03:39.806Z,99938.55
2018-07-30T21:06:07.382Z,99935.72
2018-07-30T21:08:35.021Z,99936.50
2018-07-30T21:11:02.726Z,99938.09
2018-07-30T21:13:30.306Z,99940.85
2018-07-30T21:15:57.996Z,99940.20
2018-07-30T21:18:25.650Z,99943.34
2018-07-30T21:20:53.304Z,99935.67
2018-07-30T21:23:20.959Z,99942.68
2018-07-30T21:25:48.563Z,99943.72
2018-07-30T21:28:16.173Z,99946.33
2018-07-30T21:30:43.861Z,99943.47
2018-07-30T21:33:11.445Z,99941.34
2018-07-30T21:35:39.095Z,99947.30
2018-07-30T21:38:06.873Z,99947.05
2018-07-30T21:40:34.581Z,99947.05
2018-07-30T21:43:02.201Z,99948.40
2018-07-30T21:45:29.871Z,99949.22
2018-07-30T21:47:57.491Z,99952.19
2018-07-30T21:50:25.256Z,99952.19
2018-07-30T21:52:52.912Z,99950.28
2018-07-30T21:55:20.794Z,99846.00
2018-07-30T21:57:48.440Z,99955.56
2018-07-30T22:00:25.905Z,99956.27
2018-07-30T22:02:55.135Z,99956.39
2018-07-30T22:05:22.742Z,99958.16
2018-07-30T22:07:50.412Z,99964.69
2018-07-30T22:10:18.142Z,99965.59
2018-07-30T22:12:45.783Z,99959.12
2018-07-30T22:15:13.482Z,99955.63
2018-07-30T22:17:41.143Z,99954.83
2018-07-30T22:20:08.844Z,99955.63
2018-07-30T22:22:37.302Z,99955.63
2018-07-30T22:25:12.252Z,99950.22
2018-07-30T22:27:39.852Z,99949.42
2018-07-30T22:30:08.957Z,99953.48
2018-07-30T22:32:36.570Z,99945.02
2018-07-30T22:35:05.803Z,99945.55
2018-07-30T22:37:33.495Z,99954.33
2018-07-30T22:40:01.174Z,99946.22
2018-07-30T22:42:28.904Z,99957.01
2018-07-30T22:44:56.534Z,99953.39
2018-07-30T22:47:24.146Z,99955.80
2018-07-30T22:49:51.789Z,99953.33
2018-07-30T22:52:19.424Z,99949.21
2018-07-30T22:54:47.095Z,99946.17
2018-07-30T22:57:14.707Z,99945.59
2018-07-30T22:59:42.273Z,99946.79
2018-07-30T23:02:09.921Z,99940.52
2018-07-30T23:04:37.549Z,99937.42
2018-07-30T23:07:05.259Z,99932.08
2018-07-30T23:09:32.871Z,99933.42
2018-07-30T23:12:00.474Z,99928.10
2018-07-30T23:14:28.105Z,99936.72
2018-07-30T23:16:55.666Z,99931.53
2018-07-30T23:19:23.374Z,99929.94
2018-07-30T23:21:51.056Z,99933.27
2018-07-30T23:24:18.652Z,99928.33
2018-07-30T23:26:46.282Z,99938.14
2018-07-30T23:29:13.893Z,99938.02
2018-07-30T23:31:41.488Z,99935.95
2018-07-30T23:34:09.066Z,99932.48
2018-07-30T23:36:36.603Z,99935.75
2018-07-30T23:39:07.647Z,99933.58
2018-07-30T23:41:35.238Z,99933.84
2018-07-30T23:44:03.657Z,99926.59
2018-07-30T23:46:31.324Z,99927.72
2018-07-30T23:48:58.952Z,99925.73
2018-07-30T23:51:26.568Z,99919.94
2018-07-30T23:53:54.247Z,99921.28
2018-07-30T23:56:21.896Z,99921.00
2018-07-30T23:58:49.537Z,99921.88
